Olim IV — CFK9604 — position and weather

sailwx.info

Track history (hours):
 
Tides and Currents Weather Stations Pressure Air Temp Water Temp Dewpoint Dewpoint Depression Visibility Wind Speed Wind Dir Waves Ship Positions

Olim IV

Last reported at 2015-Jul-30 22:04 UTC. Time now 2015-Jul-31 17:26 UTC.
Position N 48°40' W 122°44'.

Length 14 m.

Type: Pleasure craft. MMSI: 316017604.

Date/timePositionNaut miles runAvg speedWind from/ knotsBaromVisibWave heightAir tempDewpointWater temp
2015-Jul-30 22:04N 48°40' W 122°44'611.1
2015-Jul-30 21:32N 48°35' W 122°49'8 8.2
2015-Jul-30 20:33N 48°33' W 123°00'7 3.5
2015-Jul-30 18:30N 48°35' W 123°10'7 7.0
2015-Jul-30 17:33N 48°28' W 123°09'7 7.3
2015-Jul-30 16:33N 48°24' W 123°17'4 0.2
2015-Jul-29 23:21N 48°25' W 123°23'32 8.3
2015-Jul-29 19:31N 48°25' W 124°11'1010.0
2015-Jul-29 18:32N 48°29' W 124°25'9 9.4
2015-Jul-29 17:33N 48°32' W 124°38'9 8.3
2015-Jul-29 16:24N 48°37' W 124°50'23 7.5
2015-Jul-29 13:23N 48°51' W 125°17'2 2.2
2015-Jul-29 12:26N 48°53' W 125°18'0 0.0
2015-Jul-29 11:26N 48°53' W 125°18'0 0.0
2015-Jul-29 10:29N 48°53' W 125°18'0 0.0
2015-Jul-29 09:32N 48°53' W 125°18'0 0.0
2015-Jul-29 08:17N 48°53' W 125°18'0 0.0
2015-Jul-29 07:20N 48°53' W 125°18'0 0.0
2015-Jul-29 06:29N 48°53' W 125°18'0 0.0
2015-Jul-29 05:32N 48°53' W 125°18'0 0.0
2015-Jul-29 04:17N 48°53' W 125°18'0 0.0
2015-Jul-29 03:26N 48°53' W 125°18'0 0.0
2015-Jul-29 01:17N 48°53' W 125°18'0 0.0
2015-Jul-29 00:32N 48°53' W 125°18'0 0.0
2015-Jul-28 23:32N 48°53' W 125°18'0 0.0
2015-Jul-28 22:32N 48°53' W 125°18'0 0.0
2015-Jul-28 21:31N 48°53' W 125°18'6 6.2
2015-Jul-28 20:33N 48°51' W 125°27'9 8.6
2015-Jul-28 19:34N 48°56' W 125°38'9 9.0
2015-Jul-28 18:32N 49°02' W 125°50'9 0.4
2015-Jul-27 20:23N 49°10' W 125°55'24 5.7
2015-Jul-27 16:12N 49°19' W 126°29'5 8.4
2015-Jul-27 15:33N 49°21' W 126°36'8 7.8
2015-Jul-27 14:31N 49°29' W 126°37'  
2015-Jul-24 16:22N 50°50' W 127°42'8 9.4
2015-Jul-24 15:33N 50°48' W 127°30'  
Track history (hours):
 
Tides and Currents Weather Stations Pressure Air Temp Water Temp Dewpoint Dewpoint Depression Visibility Wind Speed Wind Dir Waves Ship Positions

Olim IV

Last reported at 2015-Jul-30 22:04 UTC. Time now 2015-Jul-31 17:26 UTC.
Position N 48°40' W 122°44'.

Length 14 m.

Type: Pleasure craft. MMSI: 316017604.

Date/timePositionNaut miles runAvg speedWind from/ knotsBaromVisibWave heightAir tempDewpointWater temp
2015-Jul-30 22:04N 48°40' W 122°44'611.1
2015-Jul-30 21:32N 48°35' W 122°49'8 8.2
2015-Jul-30 20:33N 48°33' W 123°00'7 3.5
2015-Jul-30 18:30N 48°35' W 123°10'7 7.0
2015-Jul-30 17:33N 48°28' W 123°09'7 7.3
2015-Jul-30 16:33N 48°24' W 123°17'4 0.2
2015-Jul-29 23:21N 48°25' W 123°23'32 8.3
2015-Jul-29 19:31N 48°25' W 124°11'1010.0
2015-Jul-29 18:32N 48°29' W 124°25'9 9.4
2015-Jul-29 17:33N 48°32' W 124°38'9 8.3
2015-Jul-29 16:24N 48°37' W 124°50'23 7.5
2015-Jul-29 13:23N 48°51' W 125°17'2 2.2
2015-Jul-29 12:26N 48°53' W 125°18'0 0.0
2015-Jul-29 11:26N 48°53' W 125°18'0 0.0
2015-Jul-29 10:29N 48°53' W 125°18'0 0.0
2015-Jul-29 09:32N 48°53' W 125°18'0 0.0
2015-Jul-29 08:17N 48°53' W 125°18'0 0.0
2015-Jul-29 07:20N 48°53' W 125°18'0 0.0
2015-Jul-29 06:29N 48°53' W 125°18'0 0.0
2015-Jul-29 05:32N 48°53' W 125°18'0 0.0
2015-Jul-29 04:17N 48°53' W 125°18'0 0.0
2015-Jul-29 03:26N 48°53' W 125°18'0 0.0
2015-Jul-29 01:17N 48°53' W 125°18'0 0.0
2015-Jul-29 00:32N 48°53' W 125°18'0 0.0
2015-Jul-28 23:32N 48°53' W 125°18'0 0.0
2015-Jul-28 22:32N 48°53' W 125°18'0 0.0
2015-Jul-28 21:31N 48°53' W 125°18'6 6.2
2015-Jul-28 20:33N 48°51' W 125°27'9 8.6
2015-Jul-28 19:34N 48°56' W 125°38'9 9.0
2015-Jul-28 18:32N 49°02' W 125°50'9 0.4
2015-Jul-27 20:23N 49°10' W 125°55'24 5.7
2015-Jul-27 16:12N 49°19' W 126°29'5 8.4
2015-Jul-27 15:33N 49°21' W 126°36'8 7.8
2015-Jul-27 14:31N 49°29' W 126°37'  
2015-Jul-24 16:22N 50°50' W 127°42'8 9.4
2015-Jul-24 15:33N 50°48' W 127°30'  

Dump ship's entire track history